createdAt,value
2018-08-18T00:02:03.457Z,81.54
2018-08-18T00:04:32.146Z,81.60
2018-08-18T00:07:00.154Z,81.54
2018-08-18T00:09:27.464Z,81.21
2018-08-18T00:11:54.947Z,80.94
2018-08-18T00:14:22.384Z,81.59
2018-08-18T00:16:49.701Z,81.41
2018-08-18T00:19:19.364Z,81.45
2018-08-18T00:21:46.644Z,81.42
2018-08-18T00:24:13.944Z,81.02
2018-08-18T00:26:41.189Z,82.13
2018-08-18T00:29:09.469Z,82.48
2018-08-18T00:31:39.793Z,83.48
2018-08-18T00:34:07.211Z,84.29
2018-08-18T00:36:34.534Z,84.43
2018-08-18T00:39:01.860Z,84.07
2018-08-18T00:41:30.217Z,84.51
2018-08-18T00:43:58.431Z,84.05
2018-08-18T00:46:27.062Z,84.35
2018-08-18T00:48:54.369Z,83.58
2018-08-18T00:51:26.373Z,83.63
2018-08-18T00:53:53.723Z,83.82
2018-08-18T00:56:20.994Z,82.80
2018-08-18T00:58:50.281Z,83.13
2018-08-18T01:01:17.866Z,82.61
2018-08-18T01:03:50.848Z,82.91
2018-08-18T01:06:19.563Z,82.81
2018-08-18T01:08:47.567Z,82.79
2018-08-18T01:11:15.730Z,83.20
2018-08-18T01:13:43.071Z,82.63
2018-08-18T01:16:10.274Z,81.51
2018-08-18T01:18:37.531Z,81.36
2018-08-18T01:21:05.153Z,81.46
2018-08-18T01:23:32.762Z,81.10
2018-08-18T01:26:00.018Z,81.28
2018-08-18T01:28:27.307Z,82.48
2018-08-18T01:31:06.352Z,81.82
2018-08-18T01:33:35.321Z,81.17
2018-08-18T01:36:02.793Z,82.23
2018-08-18T01:38:30.736Z,81.93
2018-08-18T01:41:12.054Z,81.19
2018-08-18T01:43:39.348Z,81.11
2018-08-18T01:46:06.653Z,80.82
2018-08-18T01:48:33.963Z,80.53
2018-08-18T01:51:21.273Z,80.46
2018-08-18T01:53:48.904Z,80.20
2018-08-18T01:56:17.196Z,81.00
2018-08-18T01:58:44.454Z,81.31
2018-08-18T02:01:11.760Z,80.78
2018-08-18T02:03:39.010Z,80.80
2018-08-18T02:06:06.384Z,80.87
2018-08-18T02:09:05.980Z,81.19
2018-08-18T02:11:33.292Z,80.81
2018-08-18T02:14:01.232Z,80.57
2018-08-18T02:16:28.485Z,81.88
2018-08-18T02:18:55.760Z,81.77
2018-08-18T02:21:34.356Z,81.53
2018-08-18T02:24:03.606Z,81.08
2018-08-18T02:26:31.864Z,82.31
2018-08-18T02:28:59.481Z,82.45
2018-08-18T02:31:26.750Z,81.95
2018-08-18T02:33:54.578Z,81.54
2018-08-18T02:36:21.880Z,81.83
2018-08-18T02:38:52.607Z,81.31
2018-08-18T02:41:19.875Z,81.49
2018-08-18T02:43:47.124Z,81.11
2018-08-18T02:46:30.761Z,81.99
2018-08-18T02:48:58.513Z,81.28
2018-08-18T02:51:25.815Z,81.51
2018-08-18T02:53:53.149Z,81.09
2018-08-18T02:56:21.510Z,81.96
2018-08-18T02:58:53.334Z,81.95
2018-08-18T03:01:25.166Z,82.75
2018-08-18T03:03:52.459Z,82.59
2018-08-18T03:06:20.036Z,83.20
2018-08-18T03:08:47.384Z,83.40
2018-08-18T03:11:14.696Z,84.06
2018-08-18T03:13:41.957Z,83.18
2018-08-18T03:16:10.519Z,83.16
2018-08-18T03:18:41.131Z,83.71
2018-08-18T03:21:08.373Z,83.65
2018-08-18T03:23:35.653Z,83.41
2018-08-18T03:26:03.201Z,83.05
2018-08-18T03:28:36.205Z,83.56
2018-08-18T03:31:04.318Z,83.24
2018-08-18T03:33:31.616Z,84.09
2018-08-18T03:35:58.937Z,84.26
2018-08-18T03:38:26.241Z,82.95
2018-08-18T03:40:53.558Z,82.89
2018-08-18T03:43:20.874Z,83.64
2018-08-18T03:45:48.188Z,84.39
2018-08-18T03:48:15.401Z,85.29
2018-08-18T03:50:47.901Z,86.16
2018-08-18T03:53:18.302Z,86.85
2018-08-18T03:55:45.682Z,87.01
2018-08-18T03:59:37.410Z,86.33
2018-08-18T04:02:04.824Z,85.96
2018-08-18T04:04:34.226Z,85.28
2018-08-18T04:07:02.177Z,84.93
2018-08-18T04:09:30.595Z,86.01
2018-08-18T04:11:59.080Z,85.37
2018-08-18T04:14:32.099Z,85.50
2018-08-18T04:16:59.403Z,85.96
2018-08-18T04:19:26.653Z,86.28
2018-08-18T04:21:54.610Z,86.09
2018-08-18T04:24:24.495Z,86.69
2018-08-18T04:26:51.819Z,87.37
2018-08-18T04:29:20.533Z,86.59
2018-08-18T04:31:47.903Z,85.84
2018-08-18T04:34:16.395Z,86.11
2018-08-18T04:36:43.717Z,85.52
2018-08-18T04:39:11.908Z,86.18
2018-08-18T04:41:39.540Z,85.81
2018-08-18T04:44:06.975Z,85.78
2018-08-18T04:46:34.281Z,86.20
2018-08-18T04:49:01.819Z,85.83
2018-08-18T04:51:29.142Z,86.61
2018-08-18T04:53:56.457Z,86.47
2018-08-18T04:56:23.723Z,86.36
2018-08-18T04:58:50.981Z,86.03
2018-08-18T05:01:18.232Z,85.79
2018-08-18T05:04:06.194Z,85.19
2018-08-18T05:06:34.146Z,85.43
2018-08-18T05:09:03.735Z,84.64
2018-08-18T05:11:31.086Z,84.70
2018-08-18T05:13:58.645Z,84.75
2018-08-18T05:16:25.961Z,85.13
2018-08-18T05:18:53.546Z,84.58
2018-08-18T05:21:21.997Z,84.24
2018-08-18T05:23:49.345Z,83.92
2018-08-18T05:26:16.632Z,83.72
2018-08-18T05:28:44.074Z,83.55
2018-08-18T05:31:11.287Z,82.93
2018-08-18T05:33:38.607Z,83.23
2018-08-18T05:36:06.169Z,82.14
2018-08-18T05:38:33.476Z,82.13
2018-08-18T05:41:00.848Z,82.52
2018-08-18T05:43:28.096Z,82.51
2018-08-18T05:45:55.277Z,82.69
2018-08-18T05:48:22.585Z,82.45
2018-08-18T05:50:49.838Z,81.83
2018-08-18T05:53:22.201Z,82.48
2018-08-18T05:55:49.936Z,81.78
2018-08-18T05:58:17.182Z,82.01
2018-08-18T06:00:44.696Z,82.62
2018-08-18T06:03:15.973Z,82.07
2018-08-18T06:05:43.276Z,81.84
2018-08-18T06:08:10.503Z,81.64
2018-08-18T06:10:37.737Z,81.21
2018-08-18T06:13:11.516Z,79.96
2018-08-18T06:15:39.864Z,79.92
2018-08-18T06:18:07.157Z,79.52
2018-08-18T06:20:34.463Z,79.20
2018-08-18T06:23:01.915Z,78.77
2018-08-18T06:25:29.153Z,77.80
2018-08-18T06:27:56.412Z,78.35
2018-08-18T06:30:23.676Z,78.14
2018-08-18T06:32:51.559Z,79.26
2018-08-18T06:35:18.771Z,79.17
2018-08-18T06:38:03.016Z,78.92
2018-08-18T06:40:30.334Z,79.47
2018-08-18T06:42:57.556Z,78.88
2018-08-18T06:45:24.798Z,78.91
2018-08-18T06:47:52.567Z,78.96
2018-08-18T06:50:21.356Z,78.39
2018-08-18T06:52:48.677Z,78.79
2018-08-18T06:55:18.369Z,78.15
2018-08-18T06:57:51.994Z,78.53
2018-08-18T07:00:22.563Z,78.21
2018-08-18T07:02:49.968Z,77.94
2018-08-18T07:05:18.219Z,77.19
2018-08-18T07:07:46.325Z,76.18
2018-08-18T07:10:28.799Z,76.67
2018-08-18T07:12:57.547Z,75.33
2018-08-18T07:15:26.507Z,75.33
2018-08-18T07:17:53.737Z,74.62
2018-08-18T07:20:21.537Z,74.58
2018-08-18T07:22:49.359Z,74.09
2018-08-18T07:25:17.318Z,72.65
2018-08-18T07:27:44.632Z,72.24
2018-08-18T07:30:12.457Z,70.64
2018-08-18T07:32:39.713Z,70.09
2018-08-18T07:35:06.992Z,67.52
2018-08-18T07:37:34.324Z,65.91
2018-08-18T07:40:01.530Z,63.99
2018-08-18T07:42:29.412Z,61.63
2018-08-18T07:44:56.879Z,62.16
2018-08-18T07:47:29.602Z,61.42
2018-08-18T07:49:57.043Z,61.30
2018-08-18T07:52:24.309Z,60.93
2018-08-18T07:54:51.611Z,61.26
2018-08-18T07:57:18.877Z,61.43
2018-08-18T07:59:46.201Z,61.15
2018-08-18T08:02:13.555Z,61.41
2018-08-18T08:04:41.056Z,60.79
2018-08-18T08:07:08.810Z,61.23
2018-08-18T08:09:36.113Z,60.36
2018-08-18T08:12:03.446Z,60.18
2018-08-18T08:14:30.698Z,59.90
2018-08-18T08:16:58.020Z,61.04
2018-08-18T08:19:26.259Z,62.02
2018-08-18T08:21:53.570Z,61.34
2018-08-18T08:24:20.837Z,60.01
2018-08-18T08:26:48.248Z,59.02
2018-08-18T08:29:15.560Z,58.55
2018-08-18T08:31:42.767Z,58.35
2018-08-18T08:34:11.124Z,59.00
2018-08-18T08:36:38.570Z,59.83
2018-08-18T08:39:05.982Z,59.15
2018-08-18T08:41:34.309Z,59.63
2018-08-18T08:44:01.555Z,58.70
2018-08-18T08:46:28.928Z,58.33
2018-08-18T08:48:58.918Z,58.06
2018-08-18T08:51:26.409Z,57.09
2018-08-18T08:53:54.408Z,56.64
2018-08-18T08:56:53.040Z,58.06
2018-08-18T08:59:20.374Z,58.34
2018-08-18T09:01:47.634Z,58.34
2018-08-18T09:04:15.252Z,59.00
2018-08-18T09:06:48.064Z,58.40
2018-08-18T09:09:15.381Z,57.52
2018-08-18T09:11:42.769Z,56.59
2018-08-18T09:14:10.049Z,55.55
2018-08-18T09:16:37.573Z,55.34
2018-08-18T09:19:04.975Z,54.74
2018-08-18T09:21:39.223Z,54.86
2018-08-18T09:24:06.707Z,54.45
2018-08-18T09:26:38.624Z,53.23
2018-08-18T09:29:07.474Z,53.50
2018-08-18T09:31:34.788Z,53.49
2018-08-18T09:34:02.185Z,53.05
2018-08-18T09:36:30.195Z,52.18
2018-08-18T09:38:57.704Z,52.48
2018-08-18T09:41:25.533Z,51.73
2018-08-18T09:43:53.027Z,52.05
2018-08-18T09:46:20.867Z,51.00
2018-08-18T09:48:48.863Z,50.72
2018-08-18T09:51:16.287Z,51.13
2018-08-18T09:53:43.626Z,51.48
2018-08-18T09:56:12.125Z,50.21
2018-08-18T09:58:39.717Z,51.33
2018-08-18T10:01:08.259Z,50.23
2018-08-18T10:03:36.463Z,49.64
2018-08-18T10:06:04.945Z,49.06
2018-08-18T10:08:33.023Z,48.35
2018-08-18T10:11:00.866Z,49.79
2018-08-18T10:13:28.674Z,48.22
2018-08-18T10:15:57.507Z,48.26
2018-08-18T10:18:26.614Z,47.79
2018-08-18T10:20:55.133Z,47.78
2018-08-18T10:23:22.498Z,47.14
2018-08-18T10:25:49.862Z,46.58
2018-08-18T10:28:18.692Z,45.08
2018-08-18T10:30:46.146Z,46.00
2018-08-18T10:33:14.154Z,45.79
2018-08-18T10:35:42.881Z,45.87
2018-08-18T10:38:10.662Z,45.83
2018-08-18T10:40:38.579Z,45.78
2018-08-18T10:43:06.015Z,46.45
2018-08-18T10:45:33.440Z,46.89
2018-08-18T10:48:01.024Z,45.26
2018-08-18T10:50:40.567Z,44.81
2018-08-18T10:53:07.838Z,45.42
2018-08-18T10:55:35.124Z,44.73
2018-08-18T10:58:08.031Z,45.46
2018-08-18T11:00:35.533Z,44.99
2018-08-18T11:03:04.266Z,45.60
2018-08-18T11:05:31.715Z,43.52
2018-08-18T11:08:05.560Z,45.09
2018-08-18T11:10:35.232Z,44.69
2018-08-18T11:13:03.170Z,43.50
2018-08-18T11:15:32.120Z,42.71
2018-08-18T11:18:00.478Z,42.15
2018-08-18T11:20:29.285Z,42.50
2018-08-18T11:23:02.458Z,41.78
2018-08-18T11:25:35.033Z,40.58
2018-08-18T11:28:02.842Z,40.25
2018-08-18T11:30:30.803Z,40.73
2018-08-18T11:32:59.013Z,40.62
2018-08-18T11:35:27.351Z,41.27
2018-08-18T11:37:56.080Z,42.30
2018-08-18T11:40:24.244Z,42.09
2018-08-18T11:42:53.942Z,40.83
2018-08-18T11:45:23.091Z,40.44
2018-08-18T11:47:57.881Z,40.68
2018-08-18T11:50:26.567Z,39.47
2018-08-18T11:52:54.003Z,40.35
2018-08-18T11:55:22.488Z,42.01
2018-08-18T11:57:50.184Z,42.49
2018-08-18T12:00:18.293Z,41.87
2018-08-18T12:02:45.667Z,42.00
2018-08-18T12:05:13.119Z,41.63
2018-08-18T12:07:40.569Z,40.91
2018-08-18T12:10:07.951Z,40.05
2018-08-18T12:12:35.311Z,40.10
2018-08-18T12:15:02.857Z,40.41
2018-08-18T12:17:30.671Z,39.64
2018-08-18T12:20:02.465Z,39.83
2018-08-18T12:22:30.172Z,40.36
2018-08-18T12:24:59.280Z,39.18
2018-08-18T12:27:27.604Z,38.43
2018-08-18T12:29:55.387Z,38.56
2018-08-18T12:32:26.838Z,38.53
2018-08-18T12:34:55.596Z,38.60
2018-08-18T12:37:26.869Z,37.80
2018-08-18T12:39:55.315Z,37.34
2018-08-18T12:42:25.592Z,38.07
2018-08-18T12:44:53.484Z,37.09
2018-08-18T12:47:21.020Z,38.69
2018-08-18T12:49:48.422Z,38.04
2018-08-18T12:52:15.890Z,38.40
2018-08-18T12:54:43.868Z,37.59
2018-08-18T12:57:11.183Z,37.43
2018-08-18T12:59:38.601Z,36.16
2018-08-18T13:02:06.037Z,37.10
2018-08-18T13:04:33.467Z,37.56
2018-08-18T13:07:00.799Z,36.89
2018-08-18T13:09:28.083Z,37.04
2018-08-18T13:11:56.664Z,36.20
2018-08-18T13:14:26.242Z,36.66
2018-08-18T13:16:53.550Z,36.31
2018-08-18T13:19:23.073Z,36.46
2018-08-18T13:21:50.459Z,35.78
2018-08-18T13:24:17.968Z,36.24
2018-08-18T13:26:45.163Z,35.60
2018-08-18T13:29:12.475Z,35.49
2018-08-18T13:31:42.480Z,35.50
2018-08-18T13:34:11.625Z,35.55
2018-08-18T13:36:40.101Z,34.71
2018-08-18T13:39:09.602Z,35.64
2018-08-18T13:41:36.906Z,36.07
2018-08-18T13:44:04.150Z,35.51
2018-08-18T13:46:43.112Z,36.85
2018-08-18T13:49:10.355Z,38.08
2018-08-18T13:51:37.665Z,38.87
2018-08-18T13:54:04.977Z,38.93
2018-08-18T13:56:32.315Z,38.62
2018-08-18T13:58:59.625Z,38.73
2018-08-18T14:01:44.877Z,38.75
2018-08-18T14:04:20.890Z,37.79
2018-08-18T14:06:51.504Z,36.86
2018-08-18T14:09:18.944Z,37.16
2018-08-18T14:11:46.375Z,37.24
2018-08-18T14:14:13.633Z,37.59
2018-08-18T14:16:40.981Z,36.10
2018-08-18T14:19:08.317Z,36.61
2018-08-18T14:21:35.594Z,35.98
2018-08-18T14:24:02.958Z,36.60
2018-08-18T14:26:30.224Z,35.23
2018-08-18T14:28:57.576Z,34.83
2018-08-18T14:31:24.822Z,35.42
2018-08-18T14:33:52.342Z,36.59
2018-08-18T14:36:21.585Z,36.69
2018-08-18T14:38:48.920Z,35.16
2018-08-18T14:41:37.276Z,35.29
2018-08-18T14:44:04.857Z,34.76
2018-08-18T14:46:32.477Z,35.68
2018-08-18T14:48:59.947Z,34.78
2018-08-18T14:51:27.318Z,35.45
2018-08-18T14:53:55.923Z,34.89
2018-08-18T14:56:23.659Z,34.48
2018-08-18T14:58:51.274Z,34.27
2018-08-18T15:01:18.676Z,35.43
2018-08-18T15:03:45.989Z,36.62
2018-08-18T15:06:13.336Z,37.21
2018-08-18T15:08:40.841Z,36.52
2018-08-18T15:11:09.580Z,36.35
2018-08-18T15:13:36.905Z,35.28
2018-08-18T15:16:04.431Z,35.41
2018-08-18T15:18:31.808Z,35.34
2018-08-18T15:20:59.339Z,34.44
2018-08-18T15:23:26.901Z,34.49
2018-08-18T15:25:54.244Z,35.44
2018-08-18T15:28:21.606Z,35.93
2018-08-18T15:30:50.344Z,37.45
2018-08-18T15:33:19.846Z,37.88
2018-08-18T15:35:47.145Z,38.72
2018-08-18T15:38:14.553Z,39.86
2018-08-18T15:40:41.915Z,37.89
2018-08-18T15:43:09.493Z,38.18
2018-08-18T15:45:59.349Z,37.48
2018-08-18T15:48:26.909Z,37.92
2018-08-18T15:50:54.193Z,37.54
2018-08-18T15:53:43.156Z,36.69
2018-08-18T15:56:10.481Z,37.74
2018-08-18T15:58:39.649Z,38.02
2018-08-18T16:01:08.569Z,38.56
2018-08-18T16:03:37.865Z,37.57
2018-08-18T16:06:05.260Z,37.81
2018-08-18T16:08:32.472Z,38.94
2018-08-18T16:11:08.277Z,37.50
2018-08-18T16:13:46.533Z,37.97
2018-08-18T16:16:22.223Z,38.05
2018-08-18T16:18:54.378Z,37.64
2018-08-18T16:21:22.372Z,38.64
2018-08-18T16:23:52.092Z,38.97
2018-08-18T16:26:19.355Z,38.85
2018-08-18T16:28:46.660Z,38.44
2018-08-18T16:31:14.055Z,38.91
2018-08-18T16:33:41.708Z,38.13
2018-08-18T16:36:09.195Z,39.09
2018-08-18T16:38:36.457Z,39.02
2018-08-18T16:41:03.849Z,38.82
2018-08-18T16:43:33.150Z,40.12
2018-08-18T16:46:17.641Z,39.51
2018-08-18T16:48:44.977Z,39.57
2018-08-18T16:51:12.301Z,39.84
2018-08-18T16:53:39.572Z,40.80
2018-08-18T16:56:12.368Z,40.24
2018-08-18T16:58:43.505Z,40.98
2018-08-18T17:01:10.703Z,41.01
2018-08-18T17:03:38.087Z,42.22
2018-08-18T17:06:05.316Z,41.85
2018-08-18T17:08:32.680Z,41.90
2018-08-18T17:10:59.927Z,41.92
2018-08-18T17:13:29.302Z,43.53
2018-08-18T17:15:57.999Z,44.60
2018-08-18T17:18:26.960Z,44.75
2018-08-18T17:20:58.045Z,44.83
2018-08-18T17:23:26.742Z,45.77
2018-08-18T17:25:54.162Z,45.75
2018-08-18T17:28:21.525Z,45.21
2018-08-18T17:30:50.988Z,45.89
2018-08-18T17:33:19.418Z,46.94
2018-08-18T17:35:47.052Z,46.73
2018-08-18T17:38:14.433Z,47.23
2018-08-18T17:40:41.676Z,46.87
2018-08-18T17:43:09.045Z,47.26
2018-08-18T17:45:41.133Z,47.39
2018-08-18T17:48:08.477Z,48.15
2018-08-18T17:50:36.635Z,47.64
2018-08-18T17:53:04.620Z,48.46
2018-08-18T17:55:31.941Z,48.01
2018-08-18T17:57:59.214Z,48.52
2018-08-18T18:00:26.639Z,49.36
2018-08-18T18:02:56.643Z,49.48
2018-08-18T18:05:26.248Z,49.97
2018-08-18T18:07:56.168Z,50.04
2018-08-18T18:10:24.816Z,50.95
2018-08-18T18:12:52.087Z,51.20
2018-08-18T18:15:31.393Z,50.38
2018-08-18T18:17:58.690Z,51.25
2018-08-18T18:20:27.359Z,51.76
2018-08-18T18:22:54.701Z,51.08
2018-08-18T18:25:22.026Z,51.82
2018-08-18T18:27:49.741Z,51.23
2018-08-18T18:30:19.890Z,51.52
2018-08-18T18:32:47.178Z,51.50
2018-08-18T18:35:14.522Z,51.83
2018-08-18T18:37:41.801Z,52.62
2018-08-18T18:40:10.602Z,53.16
2018-08-18T18:42:37.858Z,52.57
2018-08-18T18:45:06.973Z,52.46
2018-08-18T18:47:34.237Z,52.80
2018-08-18T18:50:01.469Z,53.43
2018-08-18T18:52:28.715Z,53.93
2018-08-18T18:54:56.467Z,54.18
2018-08-18T18:57:24.188Z,54.67
2018-08-18T18:59:56.618Z,54.75
2018-08-18T19:02:25.213Z,54.77
2018-08-18T19:04:52.573Z,54.71
2018-08-18T19:07:19.991Z,54.91
2018-08-18T19:09:48.166Z,55.92
2018-08-18T19:12:16.076Z,55.83
2018-08-18T19:14:43.358Z,55.15
2018-08-18T19:17:10.728Z,56.14
2018-08-18T19:19:38.668Z,56.10
2018-08-18T19:22:08.952Z,55.96
2018-08-18T19:24:36.224Z,56.52
2018-08-18T19:27:03.568Z,57.04
2018-08-18T19:29:30.818Z,57.34
2018-08-18T19:31:59.195Z,57.42
2018-08-18T19:34:26.595Z,57.23
2018-08-18T19:37:07.308Z,57.58
2018-08-18T19:39:35.519Z,58.46
2018-08-18T19:42:09.573Z,58.56
2018-08-18T19:44:40.747Z,58.38
2018-08-18T19:47:08.221Z,58.37
2018-08-18T19:49:41.175Z,57.72
2018-08-18T19:52:10.752Z,58.06
2018-08-18T19:54:38.885Z,58.61
2018-08-18T19:57:06.126Z,58.50
2018-08-18T19:59:33.422Z,57.81
2018-08-18T20:02:00.830Z,57.66
2018-08-18T20:04:28.039Z,58.87
2018-08-18T20:06:55.283Z,58.90
2018-08-18T20:09:22.560Z,59.61
2018-08-18T20:11:49.855Z,58.69
2018-08-18T20:14:17.074Z,59.53
2018-08-18T20:16:44.348Z,59.47
2018-08-18T20:19:11.620Z,59.44
2018-08-18T20:21:38.917Z,58.96
2018-08-18T20:24:06.252Z,59.71
2018-08-18T20:26:33.508Z,58.99
2018-08-18T20:29:00.781Z,59.45
2018-08-18T20:31:28.136Z,59.95
2018-08-18T20:33:55.355Z,59.83
2018-08-18T20:36:22.731Z,59.62
2018-08-18T20:39:03.064Z,59.12
2018-08-18T20:41:30.866Z,59.81
2018-08-18T20:43:58.146Z,59.97
2018-08-18T20:46:25.453Z,59.49
2018-08-18T20:48:52.938Z,59.92
2018-08-18T20:51:25.751Z,60.78
2018-08-18T20:56:15.118Z,60.79
2018-08-18T20:58:42.453Z,60.97
2018-08-18T21:01:09.972Z,62.10
2018-08-18T21:03:47.119Z,62.22
2018-08-18T21:06:15.521Z,62.00
2018-08-18T21:08:42.808Z,61.80
2018-08-18T21:11:10.210Z,61.49
2018-08-18T21:13:38.060Z,59.99
2018-08-18T21:16:05.302Z,60.37
2018-08-18T21:18:32.646Z,60.02
2018-08-18T21:21:00.159Z,60.56
2018-08-18T21:23:27.653Z,60.54
2018-08-18T21:25:54.966Z,60.84
2018-08-18T21:28:25.267Z,61.14
2018-08-18T21:30:52.657Z,60.71
2018-08-18T21:33:19.993Z,60.98
2018-08-18T21:35:47.205Z,61.10
2018-08-18T21:38:14.502Z,62.09
2018-08-18T21:40:42.119Z,61.11
2018-08-18T21:43:43.352Z,61.42
2018-08-18T21:46:10.707Z,61.09
2018-08-18T21:48:47.182Z,62.09
2018-08-18T21:51:14.571Z,61.70
2018-08-18T21:53:42.654Z,62.19
2018-08-18T21:56:10.095Z,61.79
2018-08-18T21:58:37.413Z,61.24
2018-08-18T22:01:10.807Z,61.56
2018-08-18T22:03:38.101Z,60.13
2018-08-18T22:06:05.445Z,61.01
2018-08-18T22:08:32.816Z,60.80
2018-08-18T22:11:00.129Z,60.24
2018-08-18T22:13:27.543Z,60.48
2018-08-18T22:15:54.946Z,60.91
2018-08-18T22:18:22.264Z,61.03
2018-08-18T22:20:49.578Z,61.25
2018-08-18T22:23:16.918Z,61.30
2018-08-18T22:25:44.236Z,62.41
2018-08-18T22:28:11.504Z,61.29
2018-08-18T22:30:38.844Z,61.67
2018-08-18T22:33:06.580Z,61.06
2018-08-18T22:35:34.344Z,60.59
2018-08-18T22:38:01.603Z,60.32
2018-08-18T22:40:29.003Z,60.31
2018-08-18T22:42:56.384Z,60.41
2018-08-18T22:45:27.410Z,61.09
2018-08-18T22:47:54.878Z,60.71
2018-08-18T22:50:22.162Z,59.79
2018-08-18T22:52:50.716Z,60.17
2018-08-18T22:55:18.181Z,59.34
2018-08-18T22:57:51.122Z,58.94
2018-08-18T23:00:18.488Z,59.68
2018-08-18T23:02:46.063Z,58.60
2018-08-18T23:05:13.470Z,59.49
2018-08-18T23:07:41.255Z,58.45
2018-08-18T23:10:09.324Z,58.86
2018-08-18T23:12:36.643Z,59.32
2018-08-18T23:15:04.410Z,57.47
2018-08-18T23:17:31.756Z,58.42
2018-08-18T23:19:59.073Z,58.03
2018-08-18T23:23:09.724Z,56.99
2018-08-18T23:25:37.009Z,57.50
2018-08-18T23:28:04.359Z,57.31
2018-08-18T23:30:39.171Z,56.90
2018-08-18T23:33:08.052Z,57.78
2018-08-18T23:35:35.451Z,57.92
2018-08-18T23:38:03.177Z,59.03
2018-08-18T23:40:30.749Z,59.65
2018-08-18T23:42:58.117Z,59.73
2018-08-18T23:45:36.199Z,60.03
2018-08-18T23:48:05.516Z,59.60
2018-08-18T23:50:33.148Z,60.79
2018-08-18T23:53:02.829Z,61.24
2018-08-18T23:55:30.540Z,60.56
2018-08-18T23:57:58.558Z,60.25
